Time;durP1;ratioP1;P1;durP2;ratioP2;P2;SDS_P1;SDS_P2;PMS_P1;PMS_P2;Temp;Humidity;BMP_temperature;BMP_pressure;BME280_temperature;BME280_humidity;BME280_pressure;Samples;Min_cycle;Max_cycle;Signal;HPM_P1;HPM_P2
2023/10/27 00:01:15;;;;;;;12.13;3.38;;;9.50;99.90;;;;;;4994614;28;20054;-77
2023/10/27 00:03:40;;;;;;;4.45;3.45;;;9.50;99.90;;;;;;4998581;28;20150;-78
2023/10/27 00:06:06;;;;;;;2.58;2.35;;;9.50;99.90;;;;;;4994427;28;20061;-77
2023/10/27 00:08:32;;;;;;;5.43;4.13;;;9.50;99.90;;;;;;5001078;28;20136;-78
2023/10/27 00:11:03;;;;;;;7.72;2.10;;;9.40;99.90;;;;;;5003669;28;20054;-78
2023/10/27 00:13:29;;;;;;;4.22;2.42;;;9.40;99.90;;;;;;5021171;28;20049;-78
2023/10/27 00:15:55;;;;;;;2.90;2.70;;;9.30;99.90;;;;;;5007614;28;20063;-77
2023/10/27 00:18:21;;;;;;;2.10;2.00;;;9.30;99.90;;;;;;5021248;28;20133;-77
2023/10/27 00:20:46;;;;;;;1.90;1.80;;;9.30;99.90;;;;;;5020542;28;20080;-77
2023/10/27 00:23:15;;;;;;;3.95;3.25;;;9.20;99.90;;;;;;5008362;28;20061;-77
2023/10/27 00:25:40;;;;;;;1.58;1.48;;;9.20;99.90;;;;;;5022899;28;20095;-77
2023/10/27 00:28:06;;;;;;;0.65;0.65;;;9.20;99.90;;;;;;5006936;28;20053;-78
2023/10/27 00:30:32;;;;;;;1.52;1.42;;;9.20;99.90;;;;;;5021630;28;20048;-78
2023/10/27 00:32:57;;;;;;;7.05;3.13;;;9.10;99.90;;;;;;5019077;28;20045;-78
2023/10/27 00:35:23;;;;;;;0.63;0.63;;;9.10;99.90;;;;;;5019376;28;20037;-78
2023/10/27 00:37:49;;;;;;;0.63;0.63;;;9.20;99.90;;;;;;5003785;28;20530;-78
2023/10/27 00:40:14;;;;;;;6.38;1.70;;;9.00;99.90;;;;;;5005557;28;20042;-78
2023/10/27 00:42:41;;;;;;;3.00;2.80;;;9.00;99.90;;;;;;5026605;28;20037;-78
2023/10/27 00:45:08;;;;;;;6.85;1.55;;;8.90;99.90;;;;;;5024656;28;20153;-78
2023/10/27 00:47:34;;;;;;;4.28;2.45;;;9.00;99.90;;;;;;5020153;28;20042;-78
2023/10/27 00:50:01;;;;;;;1.05;1.05;;;8.90;99.90;;;;;;5007374;28;20045;-78
2023/10/27 00:52:29;;;;;;;1.08;0.95;;;8.90;99.90;;;;;;5021370;28;20696;-78
2023/10/27 00:54:55;;;;;;;1.42;1.33;;;8.90;99.90;;;;;;5009164;28;20110;-78
2023/10/27 00:57:22;;;;;;;0.93;0.75;;;8.90;99.90;;;;;;5002684;28;20120;-78
2023/10/27 00:59:50;;;;;;;1.55;1.42;;;8.90;99.90;;;;;;5023301;28;20052;-78
2023/10/27 01:02:18;;;;;;;3.35;1.13;;;8.80;99.90;;;;;;5022492;28;20056;-78
2023/10/27 01:04:45;;;;;;;0.40;0.40;;;8.80;99.90;;;;;;5023672;28;20049;-78
2023/10/27 01:07:10;;;;;;;1.08;1.08;;;8.80;99.90;;;;;;5006854;28;20045;-78
2023/10/27 01:09:36;;;;;;;0.80;0.80;;;8.80;99.90;;;;;;4999336;28;20056;-78
2023/10/27 01:12:02;;;;;;;0.40;0.40;;;8.80;99.90;;;;;;5023700;28;20107;-78
2023/10/27 01:14:28;;;;;;;0.98;0.98;;;8.80;99.90;;;;;;5005471;28;20723;-78
2023/10/27 01:16:56;;;;;;;2.13;1.48;;;8.80;99.90;;;;;;5001237;28;20054;-78
2023/10/27 01:19:22;;;;;;;3.58;1.63;;;8.80;99.90;;;;;;5009802;28;20585;-78
2023/10/27 01:21:48;;;;;;;1.35;1.35;;;8.80;99.90;;;;;;5019855;28;20100;-78
2023/10/27 01:24:13;;;;;;;3.67;2.28;;;8.80;99.90;;;;;;5008927;28;20524;-78
2023/10/27 01:26:39;;;;;;;2.30;1.00;;;8.80;99.90;;;;;;4998427;28;20037;-77
2023/10/27 01:29:04;;;;;;;2.88;2.25;;;8.80;99.90;;;;;;5006750;28;20414;-78
2023/10/27 01:31:30;;;;;;;2.83;2.63;;;8.80;99.90;;;;;;5019229;28;20046;-78
2023/10/27 01:33:56;;;;;;;3.83;3.40;;;8.90;99.90;;;;;;4990580;28;20041;-78
2023/10/27 01:36:21;;;;;;;2.40;1.90;;;9.00;99.90;;;;;;5011944;28;20056;-78
2023/10/27 01:38:47;;;;;;;2.60;2.45;;;9.00;99.90;;;;;;4997031;28;20029;-78
2023/10/27 01:41:13;;;;;;;3.10;2.83;;;9.10;99.90;;;;;;5020048;28;20049;-78
2023/10/27 01:43:38;;;;;;;3.80;1.83;;;9.10;99.90;;;;;;5019756;28;20057;-78
2023/10/27 01:46:04;;;;;;;3.08;2.78;;;9.10;99.90;;;;;;5025249;28;20529;-78
2023/10/27 01:48:29;;;;;;;3.60;2.88;;;9.10;99.90;;;;;;5004443;28;20155;-78
2023/10/27 01:50:55;;;;;;;2.60;2.33;;;9.20;99.90;;;;;;4989356;28;20447;-78
2023/10/27 01:53:21;;;;;;;5.75;2.78;;;9.20;99.90;;;;;;4987472;28;20041;-78
2023/10/27 01:55:46;;;;;;;1.65;1.55;;;9.20;99.90;;;;;;5026265;28;20073;-78
2023/10/27 01:58:12;;;;;;;4.35;2.70;;;9.20;99.90;;;;;;5021295;28;20671;-78
2023/10/27 02:00:37;;;;;;;2.92;2.63;;;9.20;99.90;;;;;;5022008;28;20415;-78
2023/10/27 02:03:03;;;;;;;4.90;3.60;;;9.20;99.90;;;;;;5022350;28;20037;-79
2023/10/27 02:05:29;;;;;;;4.35;3.80;;;9.30;99.90;;;;;;5018928;28;20045;-78
2023/10/27 02:07:55;;;;;;;2.03;1.92;;;9.30;99.90;;;;;;5022047;28;20045;-78
2023/10/27 02:10:20;;;;;;;3.50;2.33;;;9.30;99.90;;;;;;5025001;28;20052;-78
2023/10/27 02:12:46;;;;;;;3.03;2.83;;;9.30;99.90;;;;;;5020131;28;20144;-78
2023/10/27 02:15:12;;;;;;;15.02;4.00;;;9.30;99.90;;;;;;5022883;28;20056;-78
2023/10/27 02:17:39;;;;;;;5.05;3.83;;;9.30;99.90;;;;;;5020733;28;20037;-78
2023/10/27 02:20:06;;;;;;;4.55;1.98;;;9.30;99.90;;;;;;5024529;28;20076;-78
2023/10/27 02:22:32;;;;;;;3.65;2.50;;;9.40;99.90;;;;;;5018928;28;20053;-78
2023/10/27 02:24:57;;;;;;;2.60;2.35;;;9.40;99.90;;;;;;5000720;28;20044;-78
2023/10/27 02:27:23;;;;;;;2.15;1.88;;;9.40;99.90;;;;;;5021945;28;20080;-78
2023/10/27 02:29:49;;;;;;;4.13;3.70;;;9.40;99.90;;;;;;5019210;28;20045;-79
2023/10/27 02:32:14;;;;;;;5.32;4.65;;;9.40;99.90;;;;;;5020834;28;20548;-78
2023/10/27 02:34:40;;;;;;;3.45;3.13;;;9.40;99.90;;;;;;5018989;28;20037;-78
2023/10/27 02:37:05;;;;;;;4.07;3.70;;;9.40;99.90;;;;;;5020489;28;20077;-78
2023/10/27 02:39:32;;;;;;;4.30;3.83;;;9.40;99.90;;;;;;5021643;28;20676;-78
2023/10/27 02:41:57;;;;;;;4.57;3.40;;;9.40;99.90;;;;;;5021462;28;20072;-78
2023/10/27 02:44:23;;;;;;;2.55;2.30;;;9.40;99.90;;;;;;4993614;28;20147;-78
2023/10/27 02:46:48;;;;;;;2.47;2.28;;;9.40;99.90;;;;;;5010775;28;20050;-78
2023/10/27 02:49:14;;;;;;;5.70;3.83;;;9.40;99.90;;;;;;5020846;28;20037;-78
2023/10/27 02:51:40;;;;;;;3.55;2.55;;;9.40;99.90;;;;;;5022287;28;20037;-78
2023/10/27 02:54:05;;;;;;;4.10;3.42;;;9.40;99.90;;;;;;4989500;28;20080;-78
2023/10/27 02:56:31;;;;;;;2.58;2.35;;;9.40;99.90;;;;;;5018847;28;20077;-78
2023/10/27 02:58:57;;;;;;;3.45;3.15;;;9.30;99.90;;;;;;5017182;28;20483;-78
2023/10/27 03:01:23;;;;;;;3.10;2.80;;;9.30;99.90;;;;;;5018003;28;20049;-78
2023/10/27 03:03:49;;;;;;;3.85;3.53;;;9.40;99.90;;;;;;5009548;28;20754;-78
2023/10/27 03:06:15;;;;;;;7.53;3.33;;;9.30;99.90;;;;;;4987636;28;20056;-78
2023/10/27 03:08:42;;;;;;;7.43;4.38;;;9.30;99.90;;;;;;5020836;28;20037;-78
2023/10/27 03:11:08;;;;;;;4.00;3.27;;;9.40;99.90;;;;;;5017558;28;20470;-78
2023/10/27 03:13:34;;;;;;;3.45;3.17;;;9.30;99.90;;;;;;4999548;28;20062;-78
2023/10/27 03:16:00;;;;;;;4.95;4.03;;;9.30;99.90;;;;;;4999490;28;20124;-78
2023/10/27 03:18:26;;;;;;;1.58;1.48;;;9.30;99.90;;;;;;4968735;28;20050;-78
2023/10/27 03:21:00;;;;;;;3.13;2.67;;;9.20;99.90;;;;;;5000331;28;20084;-78
2023/10/27 03:23:27;;;;;;;4.15;3.05;;;9.30;99.90;;;;;;4995283;28;20056;-78
2023/10/27 03:25:58;;;;;;;3.28;2.88;;;9.30;99.90;;;;;;5000295;28;20515;-78
2023/10/27 03:28:24;;;;;;;1.02;1.02;;;9.30;99.90;;;;;;4997219;28;20050;-78
2023/10/27 03:30:50;;;;;;;2.08;1.88;;;9.30;99.90;;;;;;4984344;28;20045;-78
2023/10/27 03:33:17;;;;;;;5.03;3.60;;;9.30;99.90;;;;;;5002640;28;20125;-78
2023/10/27 03:35:43;;;;;;;2.78;1.90;;;9.30;99.90;;;;;;4998309;28;20074;-78
2023/10/27 03:38:10;;;;;;;3.50;2.92;;;9.30;99.90;;;;;;4979541;28;20057;-78
2023/10/27 03:40:37;;;;;;;2.53;2.33;;;9.30;99.90;;;;;;4986225;28;20046;-78
2023/10/27 03:43:03;;;;;;;3.25;2.53;;;9.30;99.90;;;;;;5002113;28;20053;-78
2023/10/27 03:45:28;;;;;;;3.20;2.35;;;9.30;99.90;;;;;;4998296;28;20829;-78
2023/10/27 03:47:54;;;;;;;3.42;2.33;;;9.30;99.90;;;;;;4997371;28;20053;-78
2023/10/27 03:50:20;;;;;;;3.53;2.33;;;9.30;99.90;;;;;;4985761;28;20513;-78
2023/10/27 03:52:46;;;;;;;1.75;1.45;;;9.30;99.90;;;;;;4997430;28;20128;-78
2023/10/27 03:55:12;;;;;;;1.77;1.67;;;9.30;99.90;;;;;;4995875;28;20510;-78
2023/10/27 03:57:40;;;;;;;3.03;2.38;;;9.30;99.90;;;;;;4983760;28;20052;-78
2023/10/27 04:00:09;;;;;;;1.83;1.73;;;9.30;99.90;;;;;;4994058;28;20049;-78
2023/10/27 04:02:35;;;;;;;1.88;1.73;;;9.30;99.90;;;;;;4990494;28;20050;-78
2023/10/27 04:05:01;;;;;;;1.73;1.27;;;9.30;99.90;;;;;;4992794;28;20054;-78
2023/10/27 04:07:27;;;;;;;3.45;2.13;;;9.20;99.90;;;;;;4984714;28;20092;-78
2023/10/27 04:09:53;;;;;;;2.03;1.17;;;9.40;99.90;;;;;;4992727;28;20053;-78
2023/10/27 04:12:18;;;;;;;3.30;3.00;;;9.30;99.90;;;;;;4991403;28;20046;-78
2023/10/27 04:14:44;;;;;;;4.63;2.85;;;9.30;99.90;;;;;;5000859;28;20143;-78
2023/10/27 04:17:10;;;;;;;2.55;1.85;;;9.30;99.90;;;;;;4987734;28;20046;-78
2023/10/27 04:19:36;;;;;;;1.88;1.77;;;9.30;99.90;;;;;;4984675;28;20072;-78
2023/10/27 04:22:01;;;;;;;2.85;2.05;;;9.30;99.90;;;;;;5003595;28;20045;-78
2023/10/27 04:24:28;;;;;;;4.78;3.35;;;9.30;99.90;;;;;;5002284;28;20052;-78
2023/10/27 04:26:54;;;;;;;4.07;2.78;;;9.20;99.90;;;;;;5002676;28;20046;-78
2023/10/27 04:29:19;;;;;;;3.38;3.00;;;9.20;99.90;;;;;;5003980;28;20049;-78
2023/10/27 04:31:45;;;;;;;2.05;1.90;;;9.20;99.90;;;;;;5005265;28;20045;-77
2023/10/27 04:34:12;;;;;;;1.38;1.27;;;9.30;99.90;;;;;;4984344;28;20140;-77
2023/10/27 04:36:39;;;;;;;2.08;1.98;;;9.20;99.90;;;;;;5006953;28;20042;-77
2023/10/27 04:39:05;;;;;;;3.30;2.35;;;9.20;99.90;;;;;;5001194;28;20049;-77
2023/10/27 04:41:32;;;;;;;3.80;2.30;;;9.20;99.90;;;;;;4985791;28;20048;-77
2023/10/27 04:43:59;;;;;;;2.25;1.75;;;9.20;99.90;;;;;;4993095;28;20045;-78
2023/10/27 04:46:24;;;;;;;2.13;1.92;;;9.20;99.90;;;;;;4985573;28;20042;-78
2023/10/27 04:48:50;;;;;;;2.08;1.98;;;9.20;99.90;;;;;;5004575;28;20195;-78
2023/10/27 04:51:16;;;;;;;6.68;2.40;;;9.20;99.90;;;;;;5002006;28;20050;-78
2023/10/27 04:53:42;;;;;;;1.60;1.50;;;9.20;99.90;;;;;;5001639;28;20056;-78
2023/10/27 04:56:08;;;;;;;1.83;1.40;;;9.20;99.90;;;;;;4998544;28;20138;-78
2023/10/27 04:58:33;;;;;;;4.93;2.33;;;9.20;99.90;;;;;;4985196;28;20050;-78
2023/10/27 05:00:59;;;;;;;1.40;1.30;;;9.20;99.90;;;;;;5000231;28;20053;-78
2023/10/27 05:03:25;;;;;;;2.53;1.70;;;9.20;99.90;;;;;;4992164;28;20114;-78
2023/10/27 05:05:51;;;;;;;1.70;1.60;;;9.20;99.90;;;;;;4989728;28;20045;-78
2023/10/27 05:08:16;;;;;;;3.88;3.13;;;9.20;99.90;;;;;;5003667;28;20532;-78
2023/10/27 05:10:42;;;;;;;0.95;0.90;;;9.20;99.90;;;;;;5009930;28;20214;-78
2023/10/27 05:13:08;;;;;;;1.20;1.17;;;9.20;99.90;;;;;;5009875;28;20572;-78
2023/10/27 05:15:34;;;;;;;1.13;1.05;;;9.30;99.90;;;;;;5011881;28;20041;-78
2023/10/27 05:18:04;;;;;;;3.10;2.20;;;9.20;99.90;;;;;;5008725;28;20079;-78
2023/10/27 05:20:37;;;;;;;1.20;1.13;;;9.20;99.90;;;;;;5025670;28;20042;-77
2023/10/27 05:23:03;;;;;;;1.92;1.83;;;9.20;99.90;;;;;;5027312;28;20033;-77
2023/10/27 05:25:29;;;;;;;1.05;0.88;;;9.20;99.90;;;;;;5025418;28;20056;-78
2023/10/27 05:27:55;;;;;;;1.30;1.20;;;9.30;99.90;;;;;;5013926;28;20490;-77
2023/10/27 05:30:20;;;;;;;0.80;0.80;;;9.30;99.90;;;;;;5021660;28;20445;-77
2023/10/27 05:32:46;;;;;;;1.20;1.10;;;9.20;99.90;;;;;;5027233;28;20033;-78
2023/10/27 05:35:12;;;;;;;2.95;1.50;;;9.30;99.90;;;;;;5010993;28;20057;-77
2023/10/27 05:37:38;;;;;;;0.88;0.88;;;9.30;99.90;;;;;;5006726;28;20045;-77
2023/10/27 05:40:04;;;;;;;2.08;1.98;;;9.30;99.90;;;;;;5024469;28;20402;-77
2023/10/27 05:42:30;;;;;;;0.80;0.80;;;9.30;99.90;;;;;;5020693;28;20061;-77
2023/10/27 05:44:56;;;;;;;1.88;1.70;;;9.30;99.90;;;;;;5029143;28;20049;-77
2023/10/27 05:47:21;;;;;;;1.80;1.00;;;9.30;99.90;;;;;;5018663;28;20132;-77
2023/10/27 05:49:47;;;;;;;2.00;1.88;;;9.30;99.90;;;;;;5003404;28;20045;-77
2023/10/27 05:52:14;;;;;;;3.55;1.73;;;9.30;99.90;;;;;;5027410;28;20045;-77
2023/10/27 05:54:40;;;;;;;1.65;1.00;;;9.30;99.90;;;;;;5012405;28;20563;-78
2023/10/27 05:57:08;;;;;;;2.38;2.17;;;9.30;99.90;;;;;;5027571;28;20049;-77
2023/10/27 05:59:34;;;;;;;3.28;2.38;;;9.30;99.90;;;;;;5027100;28;20448;-77
2023/10/27 06:02:00;;;;;;;1.65;1.20;;;9.30;99.90;;;;;;5027916;28;20041;-77
2023/10/27 06:04:27;;;;;;;2.67;2.47;;;9.20;99.90;;;;;;5002158;28;20793;-77
2023/10/27 06:06:52;;;;;;;12.38;2.25;;;9.20;99.90;;;;;;5015473;28;20623;-77
2023/10/27 06:09:18;;;;;;;4.88;3.53;;;9.20;99.90;;;;;;5025366;28;20041;-78
2023/10/27 06:11:43;;;;;;;5.70;3.35;;;9.20;99.90;;;;;;5018273;28;20136;-77
2023/10/27 06:14:09;;;;;;;2.47;1.75;;;9.20;99.90;;;;;;5019350;28;20046;-77
2023/10/27 06:16:35;;;;;;;1.55;1.48;;;9.20;99.90;;;;;;5009108;28;20077;-77
2023/10/27 06:19:00;;;;;;;5.38;3.50;;;9.10;99.90;;;;;;4995624;28;20513;-78
2023/10/27 06:21:27;;;;;;;2.72;2.53;;;9.10;99.90;;;;;;4998673;28;20077;-78
2023/10/27 06:23:52;;;;;;;3.63;3.30;;;9.10;99.90;;;;;;5011015;28;20137;-77
2023/10/27 06:26:18;;;;;;;1.88;1.77;;;9.10;99.90;;;;;;5026804;28;20124;-77
2023/10/27 06:28:44;;;;;;;1.02;1.02;;;9.10;99.90;;;;;;5001911;28;20053;-77
2023/10/27 06:31:09;;;;;;;1.95;1.85;;;9.00;99.90;;;;;;5023938;28;20072;-77
2023/10/27 06:33:36;;;;;;;1.67;1.58;;;9.00;99.90;;;;;;5021672;28;20049;-77
2023/10/27 06:36:03;;;;;;;1.67;1.58;;;9.00;99.90;;;;;;5019932;28;20077;-78
2023/10/27 06:38:29;;;;;;;1.35;1.27;;;9.00;99.90;;;;;;5002413;28;20072;-77
2023/10/27 06:40:55;;;;;;;2.60;2.40;;;9.00;99.90;;;;;;5020501;28;20053;-77
2023/10/27 06:43:21;;;;;;;1.15;1.13;;;9.00;99.90;;;;;;5020770;28;20034;-78
2023/10/27 06:45:47;;;;;;;1.63;1.52;;;9.00;99.90;;;;;;5021798;28;20586;-77
2023/10/27 06:48:12;;;;;;;3.05;2.85;;;9.00;99.90;;;;;;5018095;28;20057;-77
2023/10/27 06:50:38;;;;;;;2.75;1.88;;;8.90;99.90;;;;;;5018556;28;20127;-78
2023/10/27 06:53:04;;;;;;;4.70;2.85;;;9.00;99.90;;;;;;5005930;28;20049;-78
2023/10/27 06:55:29;;;;;;;1.98;1.45;;;9.00;99.90;;;;;;5019803;28;20041;-78
2023/10/27 06:57:55;;;;;;;2.03;1.83;;;9.00;99.90;;;;;;5018884;28;20037;-78
2023/10/27 07:00:21;;;;;;;1.60;1.50;;;9.00;99.90;;;;;;5009427;28;21115;-78
2023/10/27 07:02:47;;;;;;;3.72;2.50;;;9.00;99.90;;;;;;5019087;28;20033;-77
2023/10/27 07:05:17;;;;;;;2.30;2.05;;;9.00;99.90;;;;;;5017444;28;20058;-77
2023/10/27 07:07:43;;;;;;;8.07;2.58;;;9.00;99.90;;;;;;5015371;28;20534;-77
2023/10/27 07:10:10;;;;;;;4.43;1.30;;;9.00;99.90;;;;;;5003713;28;20049;-78
2023/10/27 07:12:36;;;;;;;3.10;2.75;;;9.00;99.90;;;;;;5008563;28;20050;-77
2023/10/27 07:15:02;;;;;;;3.40;2.88;;;9.00;99.90;;;;;;4996058;28;20136;-78
2023/10/27 07:17:28;;;;;;;2.28;2.08;;;9.00;99.90;;;;;;5020005;28;20129;-77
2023/10/27 07:19:53;;;;;;;1.73;1.63;;;9.00;99.90;;;;;;5013422;28;20041;-79
2023/10/27 07:22:19;;;;;;;0.98;0.98;;;9.10;99.90;;;;;;5020468;28;20620;-77
2023/10/27 07:24:47;;;;;;;1.25;1.20;;;9.10;99.90;;;;;;5006134;28;20037;-77
2023/10/27 07:27:13;;;;;;;5.68;1.65;;;9.10;99.90;;;;;;5018352;28;20053;-79
2023/10/27 07:29:39;;;;;;;1.88;1.77;;;9.10;99.90;;;;;;5019888;28;20051;-79
2023/10/27 07:32:06;;;;;;;3.72;3.42;;;9.20;99.90;;;;;;5019112;28;20119;-79
2023/10/27 07:34:32;;;;;;;2.95;2.75;;;9.20;99.90;;;;;;5020040;28;20037;-78
2023/10/27 07:36:58;;;;;;;3.13;2.83;;;9.20;99.90;;;;;;5017039;28;20049;-77
2023/10/27 07:39:24;;;;;;;1.10;1.10;;;9.20;99.90;;;;;;5017882;28;20037;-76
2023/10/27 07:41:50;;;;;;;2.97;2.70;;;9.20;99.90;;;;;;5014195;28;20127;-77
2023/10/27 07:44:16;;;;;;;2.67;2.40;;;9.20;99.90;;;;;;5020976;28;20525;-77
2023/10/27 07:46:42;;;;;;;12.00;3.05;;;9.30;99.90;;;;;;5001720;28;20053;-77
2023/10/27 07:49:07;;;;;;;2.35;1.08;;;9.30;99.90;;;;;;5002148;28;20457;-76
2023/10/27 07:51:33;;;;;;;3.33;1.90;;;9.30;99.90;;;;;;5018183;28;20479;-76
2023/10/27 07:53:59;;;;;;;2.45;2.25;;;9.30;99.90;;;;;;5020734;28;20038;-77
2023/10/27 07:56:25;;;;;;;1.73;1.63;;;9.30;99.90;;;;;;4986311;28;20380;-77
2023/10/27 07:58:51;;;;;;;3.90;2.22;;;9.30;99.90;;;;;;5019367;28;20103;-77
2023/10/27 08:01:16;;;;;;;1.98;1.85;;;9.30;99.90;;;;;;4998095;28;20045;-77
2023/10/27 08:03:42;;;;;;;0.95;0.95;;;9.30;99.90;;;;;;5018640;28;20548;-78
2023/10/27 08:06:08;;;;;;;3.75;3.13;;;9.40;99.90;;;;;;5012217;28;20136;-77
2023/10/27 08:08:37;;;;;;;2.00;1.90;;;9.30;99.90;;;;;;5000369;28;20446;-77
2023/10/27 08:11:04;;;;;;;1.80;1.65;;;9.40;99.90;;;;;;5020084;28;20093;-77
2023/10/27 08:13:32;;;;;;;0.90;0.90;;;9.40;99.90;;;;;;5020078;28;20516;-77
2023/10/27 08:16:02;;;;;;;4.18;1.95;;;9.40;99.90;;;;;;5018086;28;20713;-78
2023/10/27 08:18:27;;;;;;;2.78;2.55;;;9.40;99.90;;;;;;5016822;28;20152;-77
2023/10/27 08:20:55;;;;;;;3.78;3.20;;;9.50;99.90;;;;;;5015050;28;20051;-77
2023/10/27 08:23:21;;;;;;;1.80;1.70;;;9.50;99.90;;;;;;5019845;28;20049;-76
2023/10/27 08:25:51;;;;;;;2.80;2.05;;;9.50;99.90;;;;;;5016459;28;20051;-76
2023/10/27 08:28:17;;;;;;;2.08;1.13;;;9.50;99.90;;;;;;5017599;28;20057;-76
2023/10/27 08:30:44;;;;;;;0.95;0.95;;;9.50;99.90;;;;;;5014702;28;20053;-78
2023/10/27 08:33:11;;;;;;;1.92;1.80;;;9.50;99.90;;;;;;5000398;28;20052;-78
2023/10/27 08:35:36;;;;;;;2.38;1.77;;;9.60;99.90;;;;;;5007858;28;20100;-78
2023/10/27 08:38:02;;;;;;;1.60;1.50;;;9.50;99.90;;;;;;5005223;28;20057;-78
2023/10/27 08:40:28;;;;;;;1.27;1.17;;;9.60;99.90;;;;;;5019395;28;20482;-79
2023/10/27 08:42:55;;;;;;;4.25;3.65;;;9.60;99.90;;;;;;5000224;28;20447;-79
2023/10/27 08:45:22;;;;;;;3.10;2.63;;;9.60;99.90;;;;;;5003741;28;20402;-78
2023/10/27 08:47:48;;;;;;;3.30;3.10;;;9.70;99.90;;;;;;5001241;28;20129;-78
2023/10/27 08:50:16;;;;;;;2.08;1.88;;;9.60;99.90;;;;;;4999120;28;20076;-78
2023/10/27 08:52:42;;;;;;;8.48;4.13;;;9.70;99.90;;;;;;5013685;28;20069;-78
2023/10/27 08:55:12;;;;;;;2.83;2.58;;;9.70;99.90;;;;;;5002417;28;20049;-77
2023/10/27 08:57:38;;;;;;;1.48;1.38;;;9.70;99.90;;;;;;5018446;28;20050;-77
2023/10/27 09:00:08;;;;;;;6.35;5.75;;;9.70;99.90;;;;;;5007719;28;20101;-75
2023/10/27 09:02:38;;;;;;;3.70;3.35;;;9.70;99.90;;;;;;5017944;28;20053;-77
2023/10/27 09:05:06;;;;;;;2.67;2.47;;;9.80;99.90;;;;;;5014714;28;20041;-77
2023/10/27 09:07:35;;;;;;;;;;;9.80;99.90;;;;;;5021456;28;20053;-77
2023/10/27 09:10:04;;;;;;;3.22;2.72;;;9.80;99.90;;;;;;4992210;28;19928;-77
2023/10/27 09:12:31;;;;;;;4.25;3.90;;;9.80;99.90;;;;;;5021134;28;20388;-77
2023/10/27 09:15:04;;;;;;;2.25;1.77;;;9.90;99.90;;;;;;5001819;28;20156;-78
2023/10/27 09:17:49;;;;;;;9.60;4.88;;;9.90;99.90;;;;;;5002725;28;20057;-78
2023/10/27 09:20:15;;;;;;;7.82;5.53;;;9.90;99.90;;;;;;5005097;28;20048;-78
2023/10/27 09:23:02;;;;;;;2.38;2.20;;;9.90;99.90;;;;;;5003834;28;20045;-79
2023/10/27 09:25:29;;;;;;;5.38;3.00;;;9.90;99.90;;;;;;5034427;28;20120;-79
2023/10/27 09:27:58;;;;;;;7.22;3.30;;;9.90;99.90;;;;;;5007975;28;20072;-79
2023/10/27 09:30:34;;;;;;;10.98;4.07;;;10.00;99.90;;;;;;5022558;28;20069;-82
2023/10/27 09:33:23;;;;;;;3.05;2.83;;;10.00;99.90;;;;;;4989549;28;20050;-80
2023/10/27 09:35:49;;;;;;;;;;;10.00;99.90;;;;;;5004888;28;20108;-78
2023/10/27 09:38:15;;;;;;;4.03;3.67;;;10.00;99.90;;;;;;5004374;28;20744;-78
2023/10/27 09:40:43;;;;;;;7.25;4.97;;;10.00;99.90;;;;;;5019610;28;20502;-79
2023/10/27 09:43:32;;;;;;;6.78;3.92;;;10.10;99.90;;;;;;5019705;28;20124;-79
2023/10/27 09:46:04;;;;;;;5.18;4.10;;;10.00;99.90;;;;;;5003787;28;20042;-79
2023/10/27 09:48:30;;;;;;;5.97;3.65;;;10.10;99.90;;;;;;5007948;28;20089;-78
2023/10/27 09:51:04;;;;;;;4.50;2.97;;;10.10;99.90;;;;;;4994008;28;20038;-79
2023/10/27 09:53:31;;;;;;;5.68;2.58;;;10.10;99.90;;;;;;5024934;28;20085;-79
2023/10/27 09:56:00;;;;;;;6.10;4.60;;;10.10;99.90;;;;;;4998527;28;20046;-79
2023/10/27 09:58:29;;;;;;;6.93;2.95;;;10.10;99.90;;;;;;5006169;28;20038;-79
2023/10/27 10:00:57;;;;;;;3.15;2.88;;;10.10;99.90;;;;;;4990647;28;20099;-79
2023/10/27 10:03:27;;;;;;;2.35;2.25;;;10.10;99.90;;;;;;5026292;28;20076;-79
2023/10/27 10:06:17;;;;;;;1.42;1.38;;;10.10;99.90;;;;;;5008856;28;20535;-79
2023/10/27 10:09:14;;;;;;;7.32;2.97;;;10.10;99.90;;;;;;5026981;28;20053;-79
2023/10/27 10:11:56;;;;;;;4.18;3.80;;;10.20;99.90;;;;;;5007334;28;20188;-74
2023/10/27 10:14:45;;;;;;;4.28;3.88;;;10.20;99.90;;;;;;5020547;28;20057;-73
2023/10/27 10:17:11;;;;;;;2.80;2.15;;;10.20;99.90;;;;;;5016105;28;20140;-73
2023/10/27 10:19:50;;;;;;;5.00;3.15;;;10.20;99.90;;;;;;5020920;28;20121;-73
2023/10/27 10:22:40;;;;;;;5.00;3.42;;;10.20;99.90;;;;;;5022579;28;20073;-73
2023/10/27 10:25:18;;;;;;;3.50;2.85;;;10.20;99.90;;;;;;5024455;28;20037;-73
2023/10/27 10:28:09;;;;;;;6.53;4.65;;;10.20;99.90;;;;;;5019212;28;20107;-73
2023/10/27 10:30:43;;;;;;;5.28;4.15;;;10.30;99.90;;;;;;5006556;28;20053;-73
2023/10/27 10:33:15;;;;;;;3.20;2.75;;;10.30;99.90;;;;;;5023806;28;20414;-72
2023/10/27 10:35:46;;;;;;;2.08;1.90;;;10.20;99.90;;;;;;5021522;28;20392;-73
2023/10/27 10:38:26;;;;;;;4.80;4.40;;;10.30;99.90;;;;;;4988987;28;20081;-72
2023/10/27 10:41:00;;;;;;;3.47;2.28;;;10.30;99.90;;;;;;5025870;28;20116;-72
2023/10/27 10:43:34;;;;;;;5.28;2.80;;;10.30;99.90;;;;;;5006696;28;20056;-73
2023/10/27 10:46:00;;;;;;;4.80;3.15;;;10.30;99.90;;;;;;5025943;28;20049;-73
2023/10/27 10:48:30;;;;;;;3.90;3.45;;;10.30;99.90;;;;;;5016230;28;20589;-73
2023/10/27 10:51:03;;;;;;;8.35;3.22;;;10.30;99.90;;;;;;5023578;28;20510;-73
2023/10/27 10:53:32;;;;;;;3.85;3.25;;;10.30;99.90;;;;;;5004543;28;20731;-73
2023/10/27 10:55:59;;;;;;;3.70;2.47;;;10.30;99.90;;;;;;5023351;28;20041;-72
2023/10/27 10:58:33;;;;;;;3.28;2.75;;;10.30;99.90;;;;;;5016464;28;20132;-72
2023/10/27 11:00:59;;;;;;;6.55;3.42;;;10.30;99.90;;;;;;5005393;28;20041;-72
2023/10/27 11:03:28;;;;;;;5.70;3.85;;;10.30;99.90;;;;;;5023305;28;20061;-72
2023/10/27 11:05:59;;;;;;;3.58;3.28;;;10.40;99.90;;;;;;5021868;28;20577;-72
2023/10/27 11:08:29;;;;;;;2.03;1.92;;;10.40;99.90;;;;;;5022856;28;20833;-72
2023/10/27 11:11:09;;;;;;;5.40;3.65;;;10.40;99.90;;;;;;5021828;28;20064;-74
2023/10/27 11:13:44;;;;;;;4.75;3.20;;;10.40;99.90;;;;;;5011151;28;20714;-72
2023/10/27 11:16:36;;;;;;;4.03;3.67;;;10.40;99.90;;;;;;5022322;28;20502;-72
2023/10/27 11:19:02;;;;;;;3.63;3.20;;;10.50;99.90;;;;;;5017418;28;20061;-72
2023/10/27 11:21:32;;;;;;;6.07;3.60;;;10.50;99.90;;;;;;5021581;28;20087;-72
2023/10/27 11:23:58;;;;;;;4.10;3.70;;;10.50;99.90;;;;;;5014863;28;20046;-72
2023/10/27 11:26:25;;;;;;;13.48;3.67;;;10.50;99.90;;;;;;5025096;28;20093;-72
2023/10/27 11:28:54;;;;;;;3.35;3.15;;;10.50;99.90;;;;;;5019368;28;20502;-72
2023/10/27 11:31:23;;;;;;;7.25;4.55;;;10.50;99.90;;;;;;5026478;28;20080;-72
2023/10/27 11:34:03;;;;;;;4.70;3.13;;;10.50;99.90;;;;;;5020903;28;20045;-72
2023/10/27 11:36:34;;;;;;;4.88;3.60;;;10.60;99.90;;;;;;4991102;28;20077;-72
2023/10/27 11:39:24;;;;;;;5.30;4.15;;;10.60;99.90;;;;;;5005304;28;20057;-72
2023/10/27 11:41:55;;;;;;;5.03;2.75;;;10.60;99.90;;;;;;4992720;28;20103;-72
2023/10/27 11:44:22;;;;;;;4.00;3.58;;;10.60;99.90;;;;;;5007546;28;21496;-72
2023/10/27 11:46:56;;;;;;;3.53;3.22;;;10.60;99.90;;;;;;5006813;28;20057;-73
2023/10/27 11:49:23;;;;;;;4.22;3.28;;;10.60;99.90;;;;;;5010084;28;20325;-72
2023/10/27 11:51:52;;;;;;;7.80;5.38;;;10.60;99.90;;;;;;5008221;28;20041;-72
2023/10/27 11:54:17;;;;;;;;;;;10.70;99.90;;;;;;5009602;28;20041;-72
2023/10/27 11:56:44;;;;;;;5.90;3.92;;;10.60;99.90;;;;;;4993007;28;19931;-73
2023/10/27 11:59:10;;;;;;;5.43;4.28;;;10.60;99.90;;;;;;5014725;28;20572;-72
2023/10/27 12:01:37;;;;;;;1.80;1.70;;;10.60;99.90;;;;;;5013325;28;20528;-72
2023/10/27 12:04:05;;;;;;;3.55;3.17;;;10.60;99.90;;;;;;5019636;28;20046;-72
2023/10/27 12:06:31;;;;;;;11.48;4.28;;;10.60;99.90;;;;;;5020890;28;20048;-72
2023/10/27 12:08:56;;;;;;;7.78;3.97;;;10.70;99.90;;;;;;5010824;28;20049;-72
2023/10/27 12:11:23;;;;;;;3.95;3.55;;;10.70;99.90;;;;;;5003885;28;20057;-72
2023/10/27 12:13:49;;;;;;;2.72;2.42;;;10.70;99.90;;;;;;5009112;28;20128;-72
2023/10/27 12:16:15;;;;;;;7.63;3.70;;;10.70;99.90;;;;;;5009211;28;20126;-73
2023/10/27 12:18:41;;;;;;;4.32;1.90;;;10.70;99.90;;;;;;5006027;28;20096;-73
2023/10/27 12:21:06;;;;;;;3.22;2.85;;;10.80;99.90;;;;;;5001675;28;20554;-73
2023/10/27 12:23:32;;;;;;;1.88;1.75;;;10.80;99.90;;;;;;5007657;28;20096;-73
2023/10/27 12:26:03;;;;;;;4.72;3.63;;;10.70;99.90;;;;;;5010231;28;20305;-73
2023/10/27 12:28:28;;;;;;;3.05;2.85;;;10.80;99.90;;;;;;4989552;28;20045;-74
2023/10/27 12:30:57;;;;;;;3.72;2.45;;;10.70;99.90;;;;;;4989907;28;20045;-74
2023/10/27 12:33:24;;;;;;;9.90;5.35;;;10.70;99.90;;;;;;5008576;28;20057;-74
2023/10/27 12:35:50;;;;;;;1.63;1.52;;;10.70;99.90;;;;;;5011372;28;20057;-74
2023/10/27 12:38:19;;;;;;;2.42;2.22;;;10.70;99.90;;;;;;5012601;28;20053;-74
2023/10/27 12:40:45;;;;;;;3.28;2.97;;;10.80;99.90;;;;;;5011066;28;20084;-74
2023/10/27 12:43:12;;;;;;;3.10;2.88;;;10.70;99.90;;;;;;5009653;28;20053;-73
2023/10/27 12:45:39;;;;;;;3.80;3.38;;;10.70;99.90;;;;;;5013502;28;20059;-73
2023/10/27 12:48:06;;;;;;;3.25;3.05;;;10.70;99.90;;;;;;5012872;28;20055;-73
2023/10/27 12:50:33;;;;;;;7.10;4.50;;;10.70;99.90;;;;;;5015209;28;20065;-73
2023/10/27 12:52:59;;;;;;;4.50;3.63;;;10.70;99.90;;;;;;5012577;28;20085;-73
2023/10/27 12:55:26;;;;;;;4.32;3.92;;;10.80;99.90;;;;;;5016059;28;20554;-73
2023/10/27 12:57:57;;;;;;;5.10;4.60;;;10.70;99.90;;;;;;5012514;28;20053;-74